Chisholm Hibbing Airport
KHIB : rendu visible

Aérodrome :











RETROUVEZ-NOUS SUR...

 
LOGIN :

S'inscrire | Disclaimer

   EN    FR    IT 

 









Légende :    VFR   VFR Marginal   IFR   IFR Intensif   IFR Très Intensif
Visi : 
Plafond : 
>= 8 km
>= 3000ft
5 à 8 km
1000 à 3000 ft
1500m à 5 km
500 à 1000 ft
800 à 1500m
200 à 500 ft
< 800m
< 200 ft
Symboles :   Orages  Brouillard  Fortes neiges  Fortes précipitations  Vent > 20 kt






- Altitude de l'aérodrome : 1354 ft
- Code IATA : HIB


KHIB - Chisholm Hibbing

DERNIER METAR :
  • 100753Z AUTO 00000KT 10SM OVC055 17/16 A2987 RMK AO2 LTG DSNT S RAE29 SLP113 P0001 T01670161 $

METARs EXPIRÉS :
  • 100653Z AUTO 20003KT 9SM -RA OVC042 17/16 A2987 RMK AO2 RAB0554 SLP113 P0004 T01720161 $
  • 100553Z AUTO 00000KT 10SM OVC035 18/16 A2988 RMK AO2 RAB0456E05 SLP114 P0000 60001 T01780161 10228 20161 402500156 53014 $
  • 100536Z AUTO 00000KT 10SM SCT020 OVC035 18/16 A2987 RMK AO2 RAB0456E05 P0000 T01780161 $
  • 100507Z AUTO 00000KT 10SM SCT022 BKN027 OVC044 17/16 A2987 RMK AO2 RAB0456E05 P0000 T01720156 $

TAF KHIB
Valide du 10 à 06h jusqu'au 11 à 06h UTC


100559Z 1006/1106 VRB03KT P6SM VCSH FEW012 SCT028 OVC035
TEMPO 1006/1008 6SM -SHRA BKN025
FM100800 31003KT P6SM SCT050
FM101700 29012G21KT P6SM FEW060
FM110100 26004KT P6SM SKC
FIR KZMP / Amérique du Nord



MET'MAP, la Météo Aéronautique d'un coup d'oeil ! - Copyright ORBIFLY Décembre 2007 - Disclaimer

ORBIFLY MET'MAP TEAM :

Programmation & Développement : Alexandra Zaïnal
Sur une idée originale de : Baudouin d'Aumeries
Assistance à la programmation : Marc-Olivier Méhu
Soutien technique & logistique : Manuel Goepfert

Contact : metmap@orbifly.com




SOURCES & CREDITS :

   NOAA       Earth
Advisory